Time;durP1;ratioP1;P1;durP2;ratioP2;P2;SDS_P1;SDS_P2;PMS_P1;PMS_P2;Temp;Humidity;BMP_temperature;BMP_pressure;BME280_temperature;BME280_humidity;BME280_pressure;Samples;Min_cycle;Max_cycle;Signal;HPM_P1;HPM_P2
2021/08/17 00:02:03;;;;;;;2.30;2.10;;;15.10;90.00;;;;;;4975564;28;20027;-69
2021/08/17 00:04:30;;;;;;;2.00;1.90;;;15.20;89.90;;;;;;4975451;28;20058;-70
2021/08/17 00:06:57;;;;;;;2.28;1.98;;;15.00;89.60;;;;;;4973988;28;20090;-71
2021/08/17 00:09:25;;;;;;;3.03;1.95;;;15.00;89.70;;;;;;4975333;28;20034;-71
2021/08/17 00:11:52;;;;;;;2.20;1.80;;;15.10;89.90;;;;;;4974125;28;20071;-71
2021/08/17 00:14:20;;;;;;;1.63;1.50;;;15.10;88.70;;;;;;4974865;28;20098;-71
2021/08/17 00:16:48;;;;;;;2.40;2.20;;;15.20;89.00;;;;;;4975235;28;20035;-71
2021/08/17 00:19:19;;;;;;;2.30;2.10;;;15.10;88.80;;;;;;4973902;28;20070;-71
2021/08/17 00:21:46;;;;;;;1.73;1.63;;;15.40;88.90;;;;;;4973616;28;20054;-72
2021/08/17 00:24:13;;;;;;;4.00;2.03;;;15.40;88.00;;;;;;4975061;28;20035;-71
2021/08/17 00:26:41;;;;;;;2.20;1.98;;;15.40;87.70;;;;;;4975700;28;20026;-71
2021/08/17 00:29:08;;;;;;;3.05;2.50;;;15.50;87.70;;;;;;4974441;28;20026;-70
2021/08/17 00:31:35;;;;;;;2.60;2.40;;;15.60;87.00;;;;;;4974845;28;20501;-71
2021/08/17 00:34:03;;;;;;;2.42;2.25;;;15.60;85.90;;;;;;4973245;28;20034;-71
2021/08/17 00:36:31;;;;;;;2.53;2.28;;;15.80;86.30;;;;;;4974332;28;20121;-72
2021/08/17 00:39:01;;;;;;;5.40;2.95;;;15.90;86.00;;;;;;4974408;28;20023;-72
2021/08/17 00:41:28;;;;;;;2.10;2.00;;;16.00;85.70;;;;;;4974459;28;20475;-74
2021/08/17 00:43:57;;;;;;;3.92;1.90;;;15.90;84.50;;;;;;4972861;28;20387;-71
2021/08/17 00:46:25;;;;;;;3.47;1.60;;;16.00;85.30;;;;;;4972801;28;20031;-71
2021/08/17 00:48:52;;;;;;;2.20;1.98;;;16.10;84.80;;;;;;4972939;28;20027;-71
2021/08/17 00:51:20;;;;;;;2.03;1.67;;;16.20;85.60;;;;;;4974237;28;20427;-71
2021/08/17 00:53:47;;;;;;;2.00;1.90;;;16.20;83.80;;;;;;4974131;28;20126;-73
2021/08/17 00:56:14;;;;;;;2.95;1.70;;;16.00;83.60;;;;;;4972597;28;20030;-72
2021/08/17 00:58:42;;;;;;;2.10;1.70;;;16.10;84.70;;;;;;4974280;28;20422;-72
2021/08/17 01:01:10;;;;;;;1.83;1.40;;;16.20;85.60;;;;;;4972772;28;20052;-72
2021/08/17 01:03:40;;;;;;;1.67;1.40;;;16.20;83.50;;;;;;4974119;28;20477;-72
2021/08/17 01:06:07;;;;;;;2.75;1.63;;;16.30;84.00;;;;;;4972803;28;20070;-71
2021/08/17 01:08:35;;;;;;;2.67;1.42;;;16.20;82.30;;;;;;4974155;28;20031;-72
2021/08/17 01:11:04;;;;;;;2.95;1.70;;;16.20;83.50;;;;;;4972544;28;20035;-69
2021/08/17 01:13:35;;;;;;;3.35;2.33;;;16.20;83.40;;;;;;4956690;28;20128;-72
2021/08/17 01:16:02;;;;;;;1.80;1.70;;;16.40;83.80;;;;;;4973667;28;20042;-70
2021/08/17 01:18:30;;;;;;;2.17;1.60;;;16.60;83.60;;;;;;4973877;28;20038;-71
2021/08/17 01:20:59;;;;;;;1.70;1.60;;;16.70;82.30;;;;;;4973945;28;20027;-71
2021/08/17 01:23:30;;;;;;;2.42;1.85;;;16.70;82.50;;;;;;4974021;28;20480;-70
2021/08/17 01:25:58;;;;;;;2.13;1.90;;;16.80;82.60;;;;;;4972599;28;20023;-70
2021/08/17 01:28:25;;;;;;;2.10;1.90;;;17.00;82.20;;;;;;4973832;28;20034;-70
2021/08/17 01:31:03;;;;;;;1.75;1.55;;;17.10;81.00;;;;;;4972332;28;20163;-71
2021/08/17 01:33:31;;;;;;;1.83;1.73;;;17.10;82.10;;;;;;4972436;28;20023;-71
2021/08/17 01:36:00;;;;;;;2.58;1.67;;;17.10;81.10;;;;;;4972337;28;20077;-71
2021/08/17 01:38:28;;;;;;;1.80;1.70;;;17.30;81.00;;;;;;4973728;28;20078;-71
2021/08/17 01:40:56;;;;;;;1.75;1.60;;;17.40;80.60;;;;;;4972436;28;20027;-71
2021/08/17 01:43:23;;;;;;;1.80;1.70;;;17.30;80.50;;;;;;4972378;28;20034;-72
2021/08/17 01:46:04;;;;;;;2.35;1.73;;;17.40;80.90;;;;;;4973635;28;20023;-71
2021/08/17 01:48:32;;;;;;;2.13;1.73;;;17.50;79.90;;;;;;4973935;28;20025;-70
2021/08/17 01:51:01;;;;;;;1.70;1.40;;;17.70;78.60;;;;;;4973667;28;20033;-71
2021/08/17 01:53:30;;;;;;;1.55;1.45;;;17.60;78.60;;;;;;4973535;28;20030;-70
2021/08/17 01:55:58;;;;;;;1.70;1.40;;;17.50;78.20;;;;;;4974121;28;20394;-70
2021/08/17 01:58:27;;;;;;;1.60;1.50;;;17.60;79.00;;;;;;4974012;28;20368;-71
2021/08/17 02:00:54;;;;;;;2.45;1.65;;;17.60;79.90;;;;;;4972604;28;20023;-70
2021/08/17 02:03:21;;;;;;;2.45;1.60;;;17.70;79.90;;;;;;4974114;28;20073;-70
2021/08/17 02:06:07;;;;;;;1.50;1.50;;;17.60;78.80;;;;;;4974264;28;20022;-71
2021/08/17 02:08:37;;;;;;;1.80;1.70;;;17.60;78.30;;;;;;4974581;28;20106;-70
2021/08/17 02:11:05;;;;;;;1.88;1.70;;;17.70;79.60;;;;;;4976398;28;20126;-70
2021/08/17 02:13:33;;;;;;;2.45;1.60;;;17.70;78.00;;;;;;4977184;28;20031;-68
2021/08/17 02:16:02;;;;;;;1.50;1.40;;;17.60;78.40;;;;;;4977246;28;20047;-69
2021/08/17 02:18:30;;;;;;;1.75;1.65;;;17.80;78.80;;;;;;4975904;28;20417;-70
2021/08/17 02:21:02;;;;;;;1.88;1.67;;;17.90;77.30;;;;;;4977452;28;20026;-71
2021/08/17 02:23:31;;;;;;;2.20;1.50;;;17.90;76.40;;;;;;4977447;28;20023;-69
2021/08/17 02:25:58;;;;;;;1.90;1.80;;;17.80;77.10;;;;;;4977358;28;20050;-70
2021/08/17 02:28:25;;;;;;;2.05;1.95;;;17.90;76.80;;;;;;4975798;28;20392;-70
2021/08/17 02:30:53;;;;;;;2.00;1.90;;;18.00;77.30;;;;;;4977348;28;20027;-70
2021/08/17 02:33:21;;;;;;;2.42;1.90;;;18.10;76.90;;;;;;4976791;28;20058;-70
2021/08/17 02:35:48;;;;;;;2.75;1.90;;;18.20;77.40;;;;;;4976855;28;20145;-70
2021/08/17 02:38:15;;;;;;;1.92;1.83;;;18.40;78.70;;;;;;4975900;28;20038;-70
2021/08/17 02:40:43;;;;;;;1.90;1.65;;;18.30;75.60;;;;;;4975629;28;20423;-71
2021/08/17 02:43:12;;;;;;;1.95;1.80;;;18.30;76.40;;;;;;4977395;28;20027;-71
2021/08/17 02:45:39;;;;;;;1.92;1.83;;;18.40;75.30;;;;;;4977113;28;20114;-71
2021/08/17 02:48:07;;;;;;;2.10;2.00;;;18.60;77.00;;;;;;4976825;28;20027;-70
2021/08/17 02:50:34;;;;;;;2.15;2.00;;;18.70;76.00;;;;;;4976909;28;20026;-71
2021/08/17 02:53:02;;;;;;;2.10;2.00;;;18.70;73.60;;;;;;4976959;28;20455;-71
2021/08/17 02:55:29;;;;;;;2.50;2.30;;;18.60;73.90;;;;;;4976509;28;20030;-70
2021/08/17 02:58:05;;;;;;;1.83;1.73;;;18.80;75.30;;;;;;4976718;28;20364;-70
2021/08/17 03:00:34;;;;;;;1.95;1.80;;;18.90;73.30;;;;;;4975359;28;20022;-70
2021/08/17 03:03:02;;;;;;;3.15;1.95;;;18.80;74.50;;;;;;4976574;28;20022;-69
2021/08/17 03:05:29;;;;;;;1.90;1.67;;;18.80;73.60;;;;;;4976606;28;20423;-70
2021/08/17 03:08:08;;;;;;;1.70;1.60;;;18.70;73.50;;;;;;4976582;28;20125;-70
2021/08/17 03:10:39;;;;;;;2.10;1.90;;;18.60;73.00;;;;;;4976345;28;20023;-70
2021/08/17 03:13:08;;;;;;;2.60;1.77;;;18.60;74.10;;;;;;4976442;28;20022;-72
2021/08/17 03:15:37;;;;;;;1.70;1.60;;;18.50;73.70;;;;;;4974656;28;20101;-70
2021/08/17 03:18:07;;;;;;;1.70;1.70;;;18.60;74.00;;;;;;4976213;28;20030;-69
2021/08/17 03:20:36;;;;;;;1.58;1.45;;;18.50;73.40;;;;;;4975230;28;20388;-72
2021/08/17 03:23:05;;;;;;;1.98;1.60;;;18.50;73.40;;;;;;4975084;28;20058;-71
2021/08/17 03:25:33;;;;;;;3.22;1.60;;;18.60;74.20;;;;;;4976326;28;20030;-70
2021/08/17 03:28:00;;;;;;;1.70;1.60;;;18.60;73.70;;;;;;4974695;28;20027;-71
2021/08/17 03:30:28;;;;;;;2.00;1.90;;;18.80;73.60;;;;;;4974646;28;20027;-71
2021/08/17 03:32:56;;;;;;;2.45;1.75;;;18.70;73.80;;;;;;4975976;28;20061;-69
2021/08/17 03:35:24;;;;;;;1.92;1.67;;;18.70;73.10;;;;;;4974805;28;20106;-70
2021/08/17 03:37:52;;;;;;;2.42;1.80;;;18.90;75.20;;;;;;4975911;28;20070;-71
2021/08/17 03:40:23;;;;;;;1.80;1.70;;;19.00;72.50;;;;;;4976103;28;20027;-71
2021/08/17 03:42:51;;;;;;;1.95;1.70;;;19.10;70.60;;;;;;4975748;28;20027;-72
2021/08/17 03:45:20;;;;;;;1.83;1.70;;;19.00;70.50;;;;;;4976269;28;20055;-72
2021/08/17 03:47:48;;;;;;;2.10;2.00;;;18.80;71.30;;;;;;4974709;28;20030;-72
2021/08/17 03:50:17;;;;;;;2.28;2.10;;;18.80;72.00;;;;;;4974185;28;20427;-71
2021/08/17 03:52:48;;;;;;;2.08;1.95;;;18.80;72.10;;;;;;4974542;28;20030;-72
2021/08/17 03:55:15;;;;;;;;;;;18.70;70.40;;;;;;4975962;28;20030;-71
2021/08/17 03:57:42;;;;;;;3.15;1.77;;;18.80;71.90;;;;;;4975692;28;20097;-71
2021/08/17 04:00:12;;;;;;;1.88;1.75;;;18.90;71.10;;;;;;4975465;28;20523;-71
2021/08/17 04:02:41;;;;;;;2.72;2.40;;;18.90;71.90;;;;;;4975618;28;20479;-72
2021/08/17 04:05:10;;;;;;;2.40;1.70;;;18.90;71.90;;;;;;4974199;28;20031;-71
2021/08/17 04:07:37;;;;;;;1.80;1.70;;;18.80;72.10;;;;;;4975444;28;20026;-71
2021/08/17 04:10:06;;;;;;;1.90;1.73;;;18.60;72.60;;;;;;4975334;28;20037;-71
2021/08/17 04:12:34;;;;;;;4.25;1.95;;;18.60;71.70;;;;;;4975205;28;20110;-70
2021/08/17 04:15:02;;;;;;;3.42;1.80;;;18.50;72.20;;;;;;4974882;28;20047;-70
2021/08/17 04:17:30;;;;;;;4.10;1.90;;;18.60;74.40;;;;;;4973681;28;20417;-70
2021/08/17 04:19:57;;;;;;;3.72;1.90;;;18.80;74.70;;;;;;4974925;28;20105;-70
2021/08/17 04:22:25;;;;;;;2.17;1.98;;;18.60;74.20;;;;;;4973467;28;20118;-72
2021/08/17 04:24:52;;;;;;;2.17;1.85;;;18.60;74.70;;;;;;4974760;28;20022;-73
2021/08/17 04:27:20;;;;;;;1.70;1.60;;;18.50;74.70;;;;;;4973276;28;20038;-73
2021/08/17 04:29:49;;;;;;;1.75;1.50;;;18.50;74.70;;;;;;4974499;28;20039;-73
2021/08/17 04:32:17;;;;;;;1.73;1.40;;;18.40;74.10;;;;;;4974221;28;20062;-73
2021/08/17 04:34:44;;;;;;;1.73;1.70;;;18.50;74.50;;;;;;4974501;28;20031;-73
2021/08/17 04:37:12;;;;;;;1.73;1.63;;;18.40;73.90;;;;;;4974669;28;20019;-73
2021/08/17 04:39:39;;;;;;;1.90;1.80;;;18.40;74.10;;;;;;4973223;28;20080;-73
2021/08/17 04:42:07;;;;;;;4.43;1.73;;;18.30;74.40;;;;;;4974631;28;20033;-72
2021/08/17 04:44:35;;;;;;;2.00;1.90;;;18.30;74.10;;;;;;4974363;28;20063;-73
2021/08/17 04:47:03;;;;;;;2.30;2.10;;;18.20;73.80;;;;;;4973023;28;20073;-72
2021/08/17 04:49:31;;;;;;;2.33;1.90;;;18.10;73.50;;;;;;4974419;28;20026;-73
2021/08/17 04:51:59;;;;;;;2.20;1.90;;;18.00;73.50;;;;;;4972941;28;20118;-73
2021/08/17 04:54:26;;;;;;;1.98;1.80;;;17.80;74.50;;;;;;4973046;28;20069;-73
2021/08/17 04:56:53;;;;;;;1.90;1.80;;;17.80;74.50;;;;;;4974189;28;20026;-72
2021/08/17 04:59:21;;;;;;;1.80;1.70;;;17.80;75.00;;;;;;4974232;28;20361;-73
2021/08/17 05:01:49;;;;;;;1.77;1.67;;;17.70;74.50;;;;;;4974160;28;20022;-72
2021/08/17 05:04:17;;;;;;;1.75;1.65;;;17.60;75.00;;;;;;4972715;28;20475;-71
2021/08/17 05:06:44;;;;;;;1.50;1.50;;;17.40;73.80;;;;;;4974134;28;20506;-71
2021/08/17 05:09:11;;;;;;;1.80;1.73;;;17.50;74.00;;;;;;4972796;28;20026;-72
2021/08/17 05:11:39;;;;;;;2.30;2.10;;;17.40;74.70;;;;;;4973889;28;20031;-72
2021/08/17 05:14:07;;;;;;;1.92;1.70;;;17.30;74.80;;;;;;4973912;28;20029;-73
2021/08/17 05:16:35;;;;;;;2.00;1.83;;;17.30;75.40;;;;;;4972606;28;20133;-73
2021/08/17 05:19:02;;;;;;;2.22;2.00;;;17.30;75.80;;;;;;4973889;28;20015;-73
2021/08/17 05:21:30;;;;;;;1.92;1.70;;;17.10;76.20;;;;;;4973871;28;20503;-73
2021/08/17 05:23:57;;;;;;;2.10;2.00;;;17.10;75.40;;;;;;4972922;28;20034;-73
2021/08/17 05:26:28;;;;;;;4.43;2.10;;;17.00;77.00;;;;;;4974083;28;20057;-71
2021/08/17 05:28:56;;;;;;;1.90;1.80;;;16.90;77.20;;;;;;4972477;28;20065;-73
2021/08/17 05:31:23;;;;;;;1.77;1.67;;;16.90;77.50;;;;;;4972591;28;20060;-72
2021/08/17 05:33:50;;;;;;;1.60;1.50;;;16.90;76.90;;;;;;4973855;28;20031;-73
2021/08/17 05:36:18;;;;;;;1.98;1.80;;;16.80;77.50;;;;;;4972412;28;20026;-73
2021/08/17 05:38:45;;;;;;;1.90;1.80;;;16.80;78.50;;;;;;4973856;28;20144;-73
2021/08/17 05:41:12;;;;;;;2.60;1.90;;;16.70;77.40;;;;;;4972443;28;20019;-73
2021/08/17 05:43:40;;;;;;;3.05;1.90;;;16.70;77.70;;;;;;4973163;28;20093;-73
2021/08/17 05:46:07;;;;;;;1.95;1.85;;;16.70;77.80;;;;;;4976196;28;20488;-73
2021/08/17 05:48:34;;;;;;;3.97;1.90;;;16.60;78.20;;;;;;4977485;28;20023;-73
2021/08/17 05:51:02;;;;;;;2.00;1.90;;;16.60;78.00;;;;;;4977397;28;20027;-76
2021/08/17 05:53:29;;;;;;;2.10;2.00;;;16.60;79.30;;;;;;4977497;28;20026;-71
2021/08/17 05:55:57;;;;;;;2.20;2.00;;;16.50;78.80;;;;;;4977387;28;20097;-72
2021/08/17 05:58:24;;;;;;;2.17;2.05;;;16.50;79.60;;;;;;4976196;28;20404;-73
2021/08/17 06:00:52;;;;;;;2.22;2.13;;;16.40;79.60;;;;;;4975899;28;20023;-72
2021/08/17 06:03:19;;;;;;;2.28;2.10;;;16.40;79.70;;;;;;4975898;28;20035;-72
2021/08/17 06:05:46;;;;;;;2.40;2.25;;;16.30;80.10;;;;;;4977515;28;20459;-72
2021/08/17 06:08:13;;;;;;;2.60;2.40;;;16.20;80.20;;;;;;4975831;28;20030;-73
2021/08/17 06:10:42;;;;;;;3.38;2.50;;;16.20;80.70;;;;;;4977444;28;20102;-73
2021/08/17 06:13:09;;;;;;;3.78;2.22;;;16.20;82.00;;;;;;4975888;28;20023;-73
2021/08/17 06:15:37;;;;;;;2.35;2.20;;;16.20;82.30;;;;;;4975759;28;20047;-73
2021/08/17 06:18:05;;;;;;;2.30;2.20;;;16.10;81.90;;;;;;4975584;28;20027;-73
2021/08/17 06:20:33;;;;;;;3.35;2.13;;;16.10;82.40;;;;;;4976881;28;20015;-73
2021/08/17 06:23:01;;;;;;;1.90;1.80;;;16.00;81.90;;;;;;4977022;28;20049;-73
2021/08/17 06:25:29;;;;;;;1.67;1.58;;;15.90;82.60;;;;;;4975967;28;20081;-72
2021/08/17 06:27:58;;;;;;;2.65;1.70;;;15.90;82.50;;;;;;4975413;28;20030;-73
2021/08/17 06:30:25;;;;;;;2.20;1.60;;;15.90;82.40;;;;;;4976633;28;20054;-74
2021/08/17 06:32:53;;;;;;;2.00;1.90;;;15.80;83.00;;;;;;4976442;28;20042;-73
2021/08/17 06:35:21;;;;;;;1.98;1.88;;;15.70;83.60;;;;;;4979274;28;20022;-73
2021/08/17 06:37:48;;;;;;;1.70;1.60;;;15.70;82.90;;;;;;4977920;28;20035;-74
2021/08/17 06:40:16;;;;;;;2.10;2.00;;;15.60;82.90;;;;;;4979019;28;20054;-73
2021/08/17 06:42:44;;;;;;;1.80;1.70;;;15.60;83.10;;;;;;4978512;28;20027;-72
2021/08/17 06:45:11;;;;;;;2.42;2.20;;;15.50;83.30;;;;;;4977609;28;20468;-72
2021/08/17 06:47:46;;;;;;;2.00;1.90;;;15.50;83.50;;;;;;4977811;28;20023;-73
2021/08/17 06:50:13;;;;;;;2.40;2.20;;;15.30;84.10;;;;;;4979482;28;20084;-74
2021/08/17 06:52:41;;;;;;;2.30;2.10;;;15.30;84.50;;;;;;4977461;28;20444;-74
2021/08/17 06:55:09;;;;;;;1.92;1.83;;;15.20;84.40;;;;;;4979332;28;20030;-74
2021/08/17 06:57:36;;;;;;;2.85;2.03;;;15.10;84.70;;;;;;4979014;28;20019;-73
2021/08/17 07:00:06;;;;;;;2.10;1.90;;;15.10;85.20;;;;;;4978207;28;20054;-73
2021/08/17 07:02:35;;;;;;;2.35;1.73;;;15.00;85.40;;;;;;4975345;28;20058;-73
2021/08/17 07:05:03;;;;;;;1.85;1.75;;;15.00;86.60;;;;;;4976116;28;20110;-73
2021/08/17 07:07:30;;;;;;;1.70;1.60;;;14.90;86.60;;;;;;4976124;28;20093;-73
2021/08/17 07:09:58;;;;;;;1.63;1.52;;;14.80;86.90;;;;;;4974550;28;20037;-74
2021/08/17 07:12:25;;;;;;;1.70;1.60;;;14.80;87.40;;;;;;4975844;28;20023;-74
2021/08/17 07:14:52;;;;;;;1.73;1.63;;;14.70;88.80;;;;;;4975810;28;20126;-73
2021/08/17 07:17:20;;;;;;;2.28;1.98;;;14.60;88.70;;;;;;4976006;28;20018;-73
2021/08/17 07:19:47;;;;;;;2.58;2.38;;;14.90;89.20;;;;;;4975816;28;20031;-74
2021/08/17 07:22:14;;;;;;;3.72;2.65;;;14.50;89.90;;;;;;4974286;28;20081;-74
2021/08/17 07:24:42;;;;;;;2.42;2.30;;;14.40;89.70;;;;;;4975693;28;20046;-73
2021/08/17 07:27:09;;;;;;;2.08;1.92;;;14.30;90.20;;;;;;4974225;28;20025;-74
2021/08/17 07:29:36;;;;;;;2.00;1.90;;;14.20;90.50;;;;;;4975581;28;20019;-73
2021/08/17 07:32:04;;;;;;;2.25;2.10;;;14.20;90.90;;;;;;4974163;28;20019;-74
2021/08/17 07:34:32;;;;;;;2.33;2.10;;;14.10;91.00;;;;;;4974337;28;20110;-73
2021/08/17 07:36:59;;;;;;;2.10;2.00;;;14.00;91.10;;;;;;4975552;28;20018;-73
2021/08/17 07:39:27;;;;;;;2.58;2.40;;;14.00;91.50;;;;;;4974088;28;20027;-73
2021/08/17 07:41:54;;;;;;;2.30;2.10;;;13.90;91.50;;;;;;4975367;28;20498;-73
2021/08/17 07:44:21;;;;;;;2.63;1.92;;;13.90;91.80;;;;;;4975360;28;20109;-73
2021/08/17 07:46:49;;;;;;;2.58;2.30;;;13.80;92.00;;;;;;4974134;28;20049;-73
2021/08/17 07:49:16;;;;;;;2.95;2.42;;;13.70;92.10;;;;;;4975242;28;20026;-72
2021/08/17 07:51:43;;;;;;;3.03;2.40;;;13.70;92.30;;;;;;4975245;28;20373;-72
2021/08/17 07:54:11;;;;;;;3.60;2.60;;;13.60;92.40;;;;;;4973717;28;20117;-73
2021/08/17 07:56:38;;;;;;;3.53;2.60;;;13.60;92.40;;;;;;4975277;28;20026;-73
2021/08/17 07:59:05;;;;;;;3.80;3.42;;;13.50;92.80;;;;;;4975132;28;20057;-72
2021/08/17 08:01:33;;;;;;;4.05;3.70;;;13.40;92.90;;;;;;4975135;28;20074;-73
2021/08/17 08:04:00;;;;;;;2.90;2.70;;;13.40;93.10;;;;;;4975163;28;20023;-72
2021/08/17 08:06:28;;;;;;;4.32;2.58;;;13.50;93.50;;;;;;4974301;28;20082;-73
2021/08/17 08:08:55;;;;;;;2.30;2.13;;;13.40;93.60;;;;;;4975120;28;20114;-74
2021/08/17 08:11:23;;;;;;;2.35;1.95;;;13.40;93.70;;;;;;4974862;28;20034;-73
2021/08/17 08:13:50;;;;;;;2.83;2.00;;;13.40;93.90;;;;;;4974842;28;20026;-74
2021/08/17 08:16:18;;;;;;;2.70;2.00;;;13.50;94.10;;;;;;4973390;28;20047;-72
2021/08/17 08:18:45;;;;;;;3.33;2.88;;;13.50;94.10;;;;;;4974783;28;20027;-73
2021/08/17 08:21:12;;;;;;;3.15;2.83;;;13.40;94.20;;;;;;4974721;28;20430;-73
2021/08/17 08:23:40;;;;;;;2.65;2.17;;;13.30;94.40;;;;;;4973389;28;20085;-73
2021/08/17 08:26:07;;;;;;;3.28;2.78;;;13.30;94.70;;;;;;4973481;28;20571;-73
2021/08/17 08:28:34;;;;;;;5.70;2.60;;;13.20;95.30;;;;;;4973343;28;20035;-73
2021/08/17 08:31:02;;;;;;;2.92;2.65;;;13.20;95.20;;;;;;4973146;28;20073;-72
2021/08/17 08:33:29;;;;;;;3.35;3.10;;;13.10;95.40;;;;;;4974568;28;20452;-73
2021/08/17 08:35:57;;;;;;;4.53;2.80;;;13.10;95.90;;;;;;4974685;28;20037;-73
2021/08/17 08:38:24;;;;;;;3.25;3.00;;;13.00;95.90;;;;;;4974539;28;20026;-73
2021/08/17 08:40:53;;;;;;;4.35;2.90;;;13.00;96.20;;;;;;4973235;28;20456;-74
2021/08/17 08:43:21;;;;;;;2.47;2.28;;;12.90;96.20;;;;;;4974363;28;20029;-73
2021/08/17 08:45:49;;;;;;;4.07;2.60;;;12.90;96.30;;;;;;4973057;28;20042;-74
2021/08/17 08:48:20;;;;;;;3.17;2.60;;;12.90;96.60;;;;;;4974316;28;20023;-73
2021/08/17 08:50:48;;;;;;;4.00;3.03;;;12.90;96.80;;;;;;4974446;28;20030;-74
2021/08/17 08:53:16;;;;;;;3.30;2.17;;;12.90;97.00;;;;;;4974167;28;20026;-73
2021/08/17 08:55:47;;;;;;;4.10;2.10;;;12.90;97.10;;;;;;4972918;28;20027;-73
2021/08/17 08:58:15;;;;;;;4.32;2.20;;;12.90;97.20;;;;;;4972922;28;20022;-74
2021/08/17 09:00:42;;;;;;;2.63;2.20;;;13.00;97.20;;;;;;4972968;28;20023;-74
2021/08/17 09:03:10;;;;;;;4.80;2.30;;;12.90;97.30;;;;;;4974137;28;20026;-75
2021/08/17 09:05:55;;;;;;;2.75;2.55;;;12.90;97.40;;;;;;4972871;28;20035;-75
2021/08/17 09:08:29;;;;;;;3.25;2.40;;;12.80;97.50;;;;;;4974428;28;20097;-77
2021/08/17 09:11:19;;;;;;;3.97;2.60;;;12.80;97.70;;;;;;4973956;28;20019;-78
2021/08/17 09:13:47;;;;;;;5.75;3.05;;;12.80;98.00;;;;;;4973008;28;20516;-76
2021/08/17 09:16:29;;;;;;;5.47;3.17;;;12.70;98.10;;;;;;4972838;28;20054;-77
2021/08/17 09:18:57;;;;;;;4.07;2.70;;;12.70;98.30;;;;;;4975814;28;20476;-77
2021/08/17 09:21:39;;;;;;;3.78;3.08;;;12.70;98.60;;;;;;4976988;28;20105;-75
2021/08/17 09:24:27;;;;;;;4.18;2.53;;;12.70;98.90;;;;;;4976795;28;20137;-74
2021/08/17 09:27:06;;;;;;;4.22;3.05;;;12.70;98.90;;;;;;4978135;28;20023;-74
2021/08/17 09:29:39;;;;;;;3.03;2.65;;;12.60;99.30;;;;;;4977946;28;20034;-74
2021/08/17 09:32:24;;;;;;;3.70;2.55;;;12.50;99.40;;;;;;4977973;28;20030;-75
2021/08/17 09:34:55;;;;;;;2.88;2.17;;;12.50;99.40;;;;;;4977850;28;20042;-75
2021/08/17 09:37:30;;;;;;;5.18;2.65;;;12.50;99.30;;;;;;4977864;28;20030;-75
2021/08/17 09:39:59;;;;;;;4.10;2.63;;;12.50;99.50;;;;;;4976517;28;20170;-75
2021/08/17 09:42:30;;;;;;;3.92;2.60;;;12.40;99.60;;;;;;4977840;28;20392;-76
2021/08/17 09:45:08;;;;;;;4.35;3.03;;;12.40;99.70;;;;;;4977852;28;20042;-76
2021/08/17 09:47:38;;;;;;;4.68;2.40;;;12.30;99.90;;;;;;4977673;28;20031;-75
2021/08/17 09:50:18;;;;;;;6.13;2.33;;;12.20;99.90;;;;;;4976476;28;20031;-74
2021/08/17 09:52:46;;;;;;;2.95;2.40;;;12.20;99.90;;;;;;4977823;28;20042;-74
2021/08/17 09:55:16;;;;;;;3.38;2.58;;;12.10;99.90;;;;;;4975972;28;20023;-74
2021/08/17 09:57:44;;;;;;;5.40;2.75;;;12.20;99.90;;;;;;4977361;28;20081;-74
2021/08/17 10:00:16;;;;;;;3.35;2.35;;;12.10;99.90;;;;;;4977316;28;20384;-74
2021/08/17 10:02:46;;;;;;;3.13;2.50;;;12.10;99.90;;;;;;4977299;28;20023;-74
2021/08/17 10:05:16;;;;;;;4.20;2.90;;;12.10;99.90;;;;;;4977180;28;20023;-74
2021/08/17 10:07:44;;;;;;;4.97;2.40;;;12.10;99.90;;;;;;4977304;28;20086;-75
2021/08/17 10:10:12;;;;;;;4.70;2.35;;;12.10;99.80;;;;;;4975766;28;20625;-75
2021/08/17 10:12:40;;;;;;;3.05;2.13;;;12.20;99.70;;;;;;4976938;28;20049;-75
2021/08/17 10:15:09;;;;;;;2.80;2.08;;;12.20;99.50;;;;;;4975655;28;20046;-74
2021/08/17 10:17:37;;;;;;;2.45;2.20;;;12.20;99.10;;;;;;4975608;28;20388;-75
2021/08/17 10:20:05;;;;;;;3.35;2.30;;;12.30;99.10;;;;;;4975059;28;20030;-74
2021/08/17 10:22:38;;;;;;;2.83;2.28;;;12.20;99.00;;;;;;4976939;28;20023;-74
2021/08/17 10:25:15;;;;;;;3.30;2.80;;;12.10;99.00;;;;;;4977139;28;20031;-75
2021/08/17 10:27:42;;;;;;;2.95;2.40;;;12.10;99.30;;;;;;4976862;28;20023;-74
2021/08/17 10:30:25;;;;;;;3.80;2.22;;;12.10;99.50;;;;;;4976145;28;20027;-74
2021/08/17 10:32:58;;;;;;;2.50;2.30;;;12.00;99.70;;;;;;4976926;28;20069;-74
2021/08/17 10:35:34;;;;;;;4.38;2.35;;;12.00;99.90;;;;;;4976639;28;20125;-73
2021/08/17 10:38:11;;;;;;;5.03;2.92;;;12.00;99.80;;;;;;4976766;28;20023;-73
2021/08/17 10:40:50;;;;;;;5.68;2.70;;;12.00;99.70;;;;;;4975161;28;20027;-73
2021/08/17 10:43:24;;;;;;;2.83;2.53;;;12.00;99.90;;;;;;4976560;28;20547;-74
2021/08/17 10:46:00;;;;;;;3.72;2.50;;;11.90;99.90;;;;;;4976420;28;20023;-75
2021/08/17 10:48:45;;;;;;;2.92;2.65;;;11.90;99.90;;;;;;4975079;28;20122;-73
2021/08/17 10:51:38;;;;;;;4.60;2.92;;;11.90;99.90;;;;;;4976457;28;20123;-73
2021/08/17 10:54:05;;;;;;;3.30;2.78;;;11.90;99.90;;;;;;4974721;28;20039;-72
2021/08/17 10:56:35;;;;;;;4.15;2.80;;;11.80;99.90;;;;;;4976157;28;20538;-74
2021/08/17 10:59:04;;;;;;;3.35;2.60;;;11.70;99.90;;;;;;4976017;28;20400;-73
2021/08/17 11:01:32;;;;;;;3.78;2.60;;;11.70;99.90;;;;;;4976258;28;20027;-73
2021/08/17 11:04:06;;;;;;;3.80;2.92;;;11.60;99.90;;;;;;4976283;28;20436;-74
2021/08/17 11:06:52;;;;;;;2.97;2.67;;;11.60;99.90;;;;;;4974812;28;20484;-74
2021/08/17 11:09:38;;;;;;;5.38;3.40;;;11.60;99.90;;;;;;4974708;28;20031;-73
2021/08/17 11:12:11;;;;;;;3.97;3.60;;;11.60;99.90;;;;;;4975922;28;20027;-73
2021/08/17 11:14:40;;;;;;;5.45;4.03;;;11.60;99.90;;;;;;4974429;28;20533;-73
2021/08/17 11:17:15;;;;;;;4.90;3.83;;;11.50;99.90;;;;;;4974444;28;20030;-72
2021/08/17 11:19:48;;;;;;;5.43;3.83;;;11.50;99.90;;;;;;4974474;28;20061;-73
2021/08/17 11:22:19;;;;;;;5.57;4.10;;;11.40;99.90;;;;;;4975875;28;20025;-73
2021/08/17 11:24:53;;;;;;;4.82;3.47;;;11.40;99.90;;;;;;4974392;28;20026;-73
2021/08/17 11:27:24;;;;;;;4.65;4.10;;;11.40;99.90;;;;;;4974508;28;20506;-73
2021/08/17 11:29:52;;;;;;;;;;;11.40;99.90;;;;;;4975984;28;20022;-73
2021/08/17 11:32:41;;;;;;;4.65;3.83;;;11.30;99.90;;;;;;4974203;28;20330;-72
2021/08/17 11:35:10;;;;;;;8.90;4.43;;;11.30;99.90;;;;;;4974231;28;20113;-72
2021/08/17 11:37:43;;;;;;;7.88;4.43;;;11.30;99.90;;;;;;4974221;28;20034;-73
2021/08/17 11:40:12;;;;;;;7.65;4.43;;;11.30;99.90;;;;;;4975536;28;20023;-72
2021/08/17 11:42:43;;;;;;;6.45;4.30;;;11.30;99.90;;;;;;4973173;28;20395;-74
2021/08/17 11:45:12;;;;;;;10.85;4.38;;;11.30;99.90;;;;;;4975769;28;20027;-73
2021/08/17 11:47:41;;;;;;;6.35;4.15;;;11.30;99.90;;;;;;4974104;28;20122;-73
2021/08/17 11:50:11;;;;;;;6.40;4.40;;;11.30;99.90;;;;;;4973982;28;20040;-73
2021/08/17 11:52:42;;;;;;;5.63;4.07;;;11.20;99.90;;;;;;4975381;28;20387;-73
2021/08/17 11:55:11;;;;;;;5.30;4.15;;;11.20;99.90;;;;;;4974175;28;20388;-73
2021/08/17 11:57:43;;;;;;;5.45;4.20;;;11.10;99.90;;;;;;4974326;28;20114;-73
2021/08/17 12:00:11;;;;;;;5.22;4.45;;;11.10;99.90;;;;;;4975222;28;20023;-73
2021/08/17 12:02:59;;;;;;;7.95;4.35;;;11.10;99.90;;;;;;4973810;28;20030;-73
2021/08/17 12:05:29;;;;;;;5.00;4.05;;;11.20;99.90;;;;;;4975205;28;20027;-73
2021/08/17 12:07:58;;;;;;;7.07;4.40;;;11.20;99.90;;;;;;4973806;28;20117;-73
2021/08/17 12:10:39;;;;;;;5.90;4.05;;;11.20;99.90;;;;;;4973772;28;20035;-73
2021/08/17 12:13:13;;;;;;;5.70;4.05;;;11.20;99.90;;;;;;4975038;28;20019;-73
2021/08/17 12:15:42;;;;;;;4.40;4.00;;;11.20;99.90;;;;;;4973546;28;20058;-73
2021/08/17 12:18:25;;;;;;;6.47;4.75;;;11.20;99.90;;;;;;4974820;28;20047;-72
2021/08/17 12:20:54;;;;;;;5.90;4.72;;;11.30;99.90;;;;;;4973593;28;20031;-73
2021/08/17 12:23:33;;;;;;;6.20;5.22;;;11.20;99.90;;;;;;4974794;28;20041;-73
2021/08/17 12:26:27;;;;;;;5.25;4.75;;;11.20;99.90;;;;;;4974789;28;20062;-72
2021/08/17 12:28:56;;;;;;;5.85;4.57;;;11.20;99.90;;;;;;4973425;28;20027;-73
2021/08/17 12:31:32;;;;;;;7.10;4.72;;;11.20;99.90;;;;;;4974742;28;20027;-73
2021/08/17 12:34:01;;;;;;;6.28;4.35;;;11.20;99.90;;;;;;4974421;28;20042;-73
2021/08/17 12:36:40;;;;;;;5.97;4.68;;;11.10;99.90;;;;;;4974566;28;20030;-73
2021/08/17 12:39:07;;;;;;;7.10;4.68;;;11.10;99.90;;;;;;4974808;28;20034;-73
2021/08/17 12:41:40;;;;;;;5.32;4.10;;;11.20;99.90;;;;;;4973009;28;20081;-73
2021/08/17 12:44:22;;;;;;;4.68;4.28;;;11.20;99.90;;;;;;4973207;28;20034;-73
2021/08/17 12:47:12;;;;;;;6.07;4.43;;;11.20;99.90;;;;;;4973092;28;20027;-73
2021/08/17 12:50:01;;;;;;;6.47;4.90;;;11.10;99.90;;;;;;4974529;28;20332;-73
2021/08/17 12:52:38;;;;;;;4.85;4.30;;;11.00;99.90;;;;;;4972710;28;20117;-73
2021/08/17 12:55:09;;;;;;;5.28;4.40;;;11.00;99.90;;;;;;4972988;28;20022;-73
2021/08/17 12:57:48;;;;;;;7.28;5.00;;;11.00;99.90;;;;;;4974308;28;20069;-72
2021/08/17 13:00:20;;;;;;;4.90;4.50;;;11.10;99.90;;;;;;4972779;28;20019;-73
2021/08/17 13:02:48;;;;;;;4.50;4.20;;;11.00;99.90;;;;;;4973020;28;20030;-72